SARI METAR and TAF weather

Enter ICAO airport designator
Station Type Date Time Source
SARI METAR 2022/05/26 05:00 UTC NOAA

SARI 260500Z 07005KT CAVOK 20/15 Q1018 RMK PP000


Station Type Date Time Source
SARI Decoded METAR 2022/05/26 05:00 UTC NOAA

Iguazu Aerodrome, Argentina (SARI) 25-44S 054-28W 270M
May 26, 2022 - 01:00 AM EDT / 2022.05.26 0500 UTC
Wind: from the ENE (070 degrees) at 6 MPH (5 KT):0
Visibility: greater than 7 mile(s):0
Temperature: 68 F (20 C)
Dew Point: 59 F (15 C)
Relative Humidity: 72%
Pressure (altimeter): 30.06 in. Hg (1018 hPa)
ob: SARI 260500Z 07005KT CAVOK 20/15 Q1018 RMK PP000
cycle: 5

Station Type Date Time Source
SARI TAF 2022/05/25 18:13 UTC NOAA

TAF SARI 251700Z 2518/2618 02010KT CAVOK TX29/2519Z TN14/2610Z

Example: see airport list